• Join FlightAware (Why Join?)
  • Login
  • US Flag 
12:47AM EDT


 

Airport Tracker/Info


-or-


 

Live Flight TrackerFlight Track Log ✈ UAE248 ✈ 13-May-2012 ✈ SAEZ / EZE - SBGL / GIG

Flight Track Log - Related Links

Times and Time Zones

All times are in EDT time to prevent confusion due to time zone crossing. See the UAE248 flight status page for this flight to view local times or setup timezone preferences in your user account.

Time Position Orientation Groundspeed Altitude Reporting Facility
EDT Latitude Longitude Course Direction KTS MPH feet Rate Location/Type
08:42PM -33.5118 -56.5369 51° Northeast  Level Estimated
08:43PM -33.4401 -56.4312 51° Northeast  Level Estimated
08:44PM -33.3683 -56.3256 51° Northeast  Level Estimated
08:45PM -33.2965 -56.2202 51° Northeast  Level Estimated
08:46PM -33.2245 -56.1150 51° Northeast  Level Estimated
08:47PM -33.1525 -56.0100 51° Northeast  Level Estimated
08:48PM -33.0804 -55.9051 51° Northeast  Level Estimated
08:49PM -33.0081 -55.8004 51° Northeast  Level Estimated
08:50PM -32.9358 -55.6959 50° Northeast  Level Estimated
08:51PM -32.8635 -55.5915 50° Northeast  Level Estimated
08:52PM -32.7910 -55.4874 50° Northeast  Level Estimated
08:53PM -32.7184 -55.3834 50° Northeast  Level Estimated
08:54PM -32.6458 -55.2795 50° Northeast  Level Estimated
08:55PM -32.5731 -55.1758 50° Northeast  Level Estimated
08:56PM -32.5003 -55.0723 50° Northeast  Level Estimated
08:57PM -32.4274 -54.9690 50° Northeast  Level Estimated
08:58PM -32.3544 -54.8658 50° Northeast  Level Estimated
08:59PM -32.2813 -54.7628 50° Northeast  Level Estimated
09:00PM -32.2082 -54.6600 50° Northeast  Level Estimated
09:01PM -32.1349 -54.5573 50° Northeast  Level Estimated
09:02PM -32.0616 -54.4548 50° Northeast  Level Estimated
09:03PM -31.9883 -54.3525 50° Northeast  Level Estimated
09:04PM -31.9148 -54.2503 50° Northeast  Level Estimated
09:05PM -31.8412 -54.1483 50° Northeast  Level Estimated
09:06PM -31.7676 -54.0464 50° Northeast  Level Estimated
09:07PM -31.6938 -53.9447 50° Northeast  Level Estimated
09:08PM -31.6201 -53.8432 49° Northeast  Level Estimated
09:09PM -31.5462 -53.7418 49° Northeast  Level Estimated
09:10PM -31.4722 -53.6406 49° Northeast  Level Estimated
09:11PM -31.3982 -53.5395 49° Northeast  Level Estimated
09:12PM -31.3241 -53.4386 49° Northeast  Level Estimated
09:13PM -31.2498 -53.3379 49° Northeast  Level Estimated
09:14PM -31.1756 -53.2374 49° Northeast  Level Estimated
09:15PM -31.1012 -53.1369 49° Northeast  Level Estimated
09:16PM -31.0268 -53.0367 49° Northeast  Level Estimated
09:17PM -30.9523 -52.9366 49° Northeast  Level Estimated
09:18PM -30.8777 -52.8366 49° Northeast  Level Estimated
09:19PM -30.8030 -52.7368 49° Northeast  Level Estimated
09:20PM -30.7283 -52.6372 49° Northeast  Level Estimated
09:21PM -30.6535 -52.5377 49° Northeast  Level Estimated
09:22PM -30.5786 -52.4384 49° Northeast  Level Estimated
09:23PM -30.5036 -52.3392 49° Northeast  Level Estimated
09:24PM -30.4286 -52.2402 49° Northeast  Level Estimated
09:25PM -30.3534 -52.1413 49° Northeast  Level Estimated
09:26PM -30.2782 -52.0426 49° Northeast  Level Estimated
09:27PM -30.2030 -51.9440 49° Northeast  Level Estimated
09:28PM -30.1276 -51.8456 48° Northeast  Level Estimated
09:29PM -30.0522 -51.7473 48° Northeast  Level Estimated
09:30PM -29.9767 -51.6492 48° Northeast  Level Estimated
09:31PM -29.9012 -51.5513 48° Northeast  Level Estimated
09:32PM -29.8255 -51.4534 48° Northeast  Level Estimated
09:33PM -29.7498 -51.3558 48° Northeast  Level Estimated
09:34PM -29.6741 -51.2583 48° Northeast  Level Estimated
09:35PM -29.5982 -51.1609 48° Northeast  Level Estimated
09:36PM -29.5223 -51.0636 48° Northeast  Level Estimated
09:37PM -29.4463 -50.9666 48° Northeast  Level Estimated
09:38PM -29.3703 -50.8696 48° Northeast  Level Estimated
09:39PM -29.2941 -50.7728 48° Northeast  Level Estimated
09:40PM -29.2179 -50.6762 48° Northeast  Level Estimated
09:41PM -29.1416 -50.5797 48° Northeast  Level Estimated
09:42PM -29.0653 -50.4833 48° Northeast  Level Estimated
09:43PM -28.9889 -50.3871 48° Northeast  Level Estimated
09:44PM -28.9124 -50.2910 48° Northeast  Level Estimated
09:45PM -28.8359 -50.1951 48° Northeast  Level Estimated
09:46PM -28.7593 -50.0993 48° Northeast  Level Estimated
09:47PM -28.6826 -50.0036 48° Northeast  Level Estimated
09:48PM -28.6059 -49.9081 48° Northeast  Level Estimated
09:49PM -28.5291 -49.8128 47° Northeast  Level Estimated
09:50PM -28.4522 -49.7175 47° Northeast  Level Estimated
09:51PM -28.3752 -49.6224 47° Northeast  Level Estimated
09:52PM -28.2982 -49.5275 47° Northeast  Level Estimated
09:53PM -28.2212 -49.4326 47° Northeast  Level Estimated
09:54PM -28.1440 -49.3380 47° Northeast  Level Estimated
09:55PM -28.0668 -49.2434 47° Northeast  Level Estimated
09:56PM -27.9895 -49.1490 47° Northeast  Level Estimated
09:57PM -27.9122 -49.0547 47° Northeast  Level Estimated
09:58PM -27.8348 -48.9606 47° Northeast  Level Estimated
09:59PM -27.7574 -48.8666 47° Northeast  Level Estimated
10:00PM -27.6798 -48.7727 47° Northeast  Level Estimated
10:01PM -27.6022 -48.6790 47° Northeast  Level Estimated
10:02PM -27.5246 -48.5854 47° Northeast  Level Estimated
10:03PM -27.4469 -48.4919 47° Northeast  Level Estimated
10:04PM -27.3691 -48.3985 47° Northeast  Level Estimated
10:05PM -27.2913 -48.3053 47° Northeast  Level Estimated
10:06PM -27.2134 -48.2122 47° Northeast  Level Estimated
10:07PM -27.1354 -48.1193 47° Northeast  Level Estimated
10:08PM -27.0574 -48.0265 47° Northeast  Level Estimated
10:09PM -26.9793 -47.9338 47° Northeast  Level Estimated
10:10PM -26.9012 -47.8412 47° Northeast  Level Estimated
10:11PM -26.8230 -47.7488 46° Northeast  Level Estimated
10:12PM -26.7447 -47.6565 46° Northeast  Level Estimated
10:13PM -26.6664 -47.5643 46° Northeast  Level Estimated
10:14PM -26.5880 -47.4722 46° Northeast  Level Estimated
10:15PM -26.5096 -47.3803 46° Northeast  Level Estimated
10:16PM -26.4311 -47.2885 46° Northeast  Level Estimated
10:17PM -26.3525 -47.1968 46° Northeast  Level Estimated
10:18PM -26.2739 -47.1053 46° Northeast  Level Estimated
10:19PM -26.1952 -47.0138 46° Northeast  Level Estimated
10:20PM -26.1165 -46.9225 46° Northeast  Level Estimated
10:21PM -26.0377 -46.8313 46° Northeast  Level Estimated
10:22PM -25.9588 -46.7403 46° Northeast  Level Estimated
10:23PM -25.8799 -46.6493 46° Northeast  Level Estimated
10:24PM -25.8010 -46.5585 46° Northeast  Level Estimated
10:25PM -25.7220 -46.4678 46° Northeast  Level Estimated
10:26PM -25.6429 -46.3772 46° Northeast  Level Estimated
10:27PM -25.5637 -46.2868 46° Northeast  Level Estimated
10:28PM -25.4846 -46.1964 46° Northeast  Level Estimated
10:29PM -25.4053 -46.1062 46° Northeast  Level Estimated
10:30PM -25.3260 -46.0161 46° Northeast  Level Estimated
10:31PM -25.2467 -45.9261 46° Northeast  Level Estimated
10:32PM -25.1673 -45.8363 46° Northeast  Level Estimated
10:33PM -25.0878 -45.7465 46° Northeast  Level Estimated
10:34PM -25.0083 -45.6569 46° Northeast  Level Estimated
10:35PM -24.9287 -45.5674 46° Northeast  Level Estimated
10:36PM -24.8491 -45.4780 46° Northeast  Level Estimated
10:37PM -24.7694 -45.3887 45° Northeast  Level Estimated
10:38PM -24.6897 -45.2995 45° Northeast  Level Estimated
10:39PM -24.6099 -45.2105 45° Northeast  Level Estimated
10:40PM -24.5301 -45.1215 45° Northeast  Level Estimated
10:41PM -24.4502 -45.0327 45° Northeast  Level Estimated
10:42PM -24.3703 -44.9440 45° Northeast  Level Estimated
10:43PM -24.2903 -44.8554 45° Northeast  Level Estimated
10:44PM -24.2103 -44.7669 45° Northeast  Level Estimated
10:45PM -24.1302 -44.6785 45° Northeast  Level Estimated
10:46PM -24.0500 -44.5902 45° Northeast  Level Estimated
10:47PM -23.9699 -44.5021 45° Northeast  Level Estimated
10:48PM -23.8896 -44.4140 45° Northeast  Level Estimated
10:49PM -23.8093 -44.3261 45° Northeast  Level Estimated
10:50PM -23.7290 -44.2383 45° Northeast  Level Estimated
10:51PM -23.6486 -44.1505 45° Northeast  Level Estimated
10:52PM -23.5681 -44.0629 45° Northeast  Level Estimated
10:53PM -23.4877 -43.9754 45° Northeast  Level Estimated
10:54PM -23.4071 -43.8880 45° Northeast  Level Estimated
10:55PM -23.3265 -43.8007 45° Northeast  Level Estimated
10:56PM -23.2459 -43.7135 45° Northeast  Level Estimated
10:57PM -23.1652 -43.6264 45° Northeast  Level Estimated
10:58PM -23.0845 -43.5394 45° Northeast  Level Estimated
10:59PM -23.0037 -43.4525 45° Northeast  Level Estimated
11:00PM -22.9229 -43.3658 45° Northeast  Level Estimated
11:01PM -22.8420 -43.2791 45° Northeast  Level Estimated
11:02PM -22.7611 -43.1925 225° Southwest  Level Estimated
11:03PM -22.8420 -43.2791 45° Northeast  Level Estimated
11:04PM -22.7611 -43.1925 225° Southwest  Level Estimated
11:05PM -22.8420 -43.2791 45° Northeast  Level Estimated
11:06PM -22.7611 -43.1925 225° Southwest  Level Estimated
11:07PM -22.8420 -43.2791 45° Northeast  Level Estimated
11:08PM -22.7611 -43.1925 225° Southwest  Level Estimated
11:09PM -22.8420 -43.2791 45° Northeast  Level Estimated
11:10PM -22.7611 -43.1925 225° Southwest  Level Estimated
11:11PM -22.8420 -43.2791 45° Northeast  Level Estimated
11:12PM -22.7611 -43.1925 225° Southwest  Level Estimated
11:13PM -22.8469 -43.2843 225° Southwest  Level Estimated